createdAt,value
2022-10-13T00:00:49.573Z,71.71
2022-10-13T00:04:05.776Z,71.76
2022-10-13T00:07:08.619Z,71.88
2022-10-13T00:10:11.572Z,71.82
2022-10-13T00:13:15.030Z,71.80
2022-10-13T00:16:20.651Z,71.79
2022-10-13T00:19:23.422Z,71.84
2022-10-13T00:22:27.712Z,71.94
2022-10-13T00:25:30.543Z,71.95
2022-10-13T00:28:33.438Z,71.93
2022-10-13T00:31:36.338Z,71.95
2022-10-13T00:34:40.392Z,71.91
2022-10-13T00:37:43.209Z,71.88
2022-10-13T00:40:56.365Z,71.87
2022-10-13T00:44:26.874Z,71.79
2022-10-13T00:47:40.718Z,71.75
2022-10-13T00:50:44.189Z,71.69
2022-10-13T00:53:48.471Z,71.69
2022-10-13T00:56:53.536Z,71.72
2022-10-13T00:59:57.035Z,71.76
2022-10-13T01:03:01.018Z,71.72
2022-10-13T01:06:05.781Z,71.74
2022-10-13T01:09:08.626Z,71.70
2022-10-13T01:12:20.187Z,71.66
2022-10-13T01:15:39.702Z,71.54
2022-10-13T01:18:59.876Z,71.42
2022-10-13T01:22:21.420Z,71.43
2022-10-13T01:25:30.393Z,71.45
2022-10-13T01:28:53.409Z,71.44
2022-10-13T01:32:06.245Z,71.34
2022-10-13T01:35:36.002Z,71.29
2022-10-13T01:38:49.803Z,71.22
2022-10-13T01:42:00.867Z,71.35
2022-10-13T01:45:04.494Z,71.37
2022-10-13T01:48:08.897Z,71.37
2022-10-13T01:51:20.739Z,71.34
2022-10-13T01:54:27.132Z,71.33
2022-10-13T01:57:38.241Z,71.33
2022-10-13T02:00:48.824Z,71.30
2022-10-13T02:04:10.553Z,71.29
2022-10-13T02:07:19.858Z,71.36
2022-10-13T02:10:31.045Z,71.42
2022-10-13T02:13:36.833Z,71.39
2022-10-13T02:16:45.439Z,71.38
2022-10-13T02:19:48.571Z,71.45
2022-10-13T02:22:57.939Z,71.45
2022-10-13T02:26:00.999Z,71.32
2022-10-13T02:29:12.475Z,71.34
2022-10-13T02:32:15.372Z,71.41
2022-10-13T02:35:18.558Z,71.41
2022-10-13T02:38:21.545Z,71.40
2022-10-13T02:41:24.704Z,71.36
2022-10-13T02:44:27.586Z,71.38
2022-10-13T02:47:30.538Z,71.30
2022-10-13T02:50:33.405Z,71.21
2022-10-13T02:53:36.230Z,71.21
2022-10-13T02:56:39.098Z,71.20
2022-10-13T02:59:41.918Z,71.35
2022-10-13T03:02:44.710Z,71.33
2022-10-13T03:05:47.587Z,71.36
2022-10-13T03:08:50.718Z,71.28
2022-10-13T03:11:53.818Z,71.35
2022-10-13T03:14:57.504Z,71.41
2022-10-13T03:18:00.329Z,71.52
2022-10-13T03:21:06.490Z,71.48
2022-10-13T03:24:09.500Z,71.41
2022-10-13T03:27:12.533Z,71.43
2022-10-13T03:30:15.414Z,71.33
2022-10-13T03:33:18.297Z,71.41
2022-10-13T03:36:21.122Z,71.47
2022-10-13T03:39:25.397Z,71.47
2022-10-13T03:42:28.221Z,71.42
2022-10-13T03:45:31.436Z,71.45
2022-10-13T03:48:36.170Z,71.39
2022-10-13T03:51:39.819Z,71.35
2022-10-13T03:54:42.619Z,71.25
2022-10-13T03:57:45.480Z,71.18
2022-10-13T04:00:48.440Z,71.10
2022-10-13T04:03:54.316Z,71.17
2022-10-13T04:06:57.587Z,71.31
2022-10-13T04:10:00.434Z,71.22
2022-10-13T04:13:05.672Z,71.14
2022-10-13T04:16:18.938Z,71.18
2022-10-13T04:19:21.887Z,71.29
2022-10-13T04:22:24.694Z,71.36
2022-10-13T04:25:27.604Z,71.31
2022-10-13T04:28:30.636Z,71.36
2022-10-13T04:31:34.370Z,71.38
2022-10-13T04:34:37.407Z,71.40
2022-10-13T04:37:44.974Z,71.31
2022-10-13T04:40:48.324Z,71.30
2022-10-13T04:43:52.276Z,71.27
2022-10-13T04:46:55.486Z,71.28
2022-10-13T04:49:58.275Z,71.33
2022-10-13T04:53:01.146Z,71.38
2022-10-13T04:56:09.671Z,71.41
2022-10-13T04:59:12.641Z,71.46
2022-10-13T05:02:15.540Z,71.56
2022-10-13T05:05:18.444Z,71.69
2022-10-13T05:08:21.718Z,71.75
2022-10-13T05:11:26.631Z,71.77
2022-10-13T05:14:31.110Z,71.83
2022-10-13T05:17:36.288Z,71.80
2022-10-13T05:20:44.019Z,71.74
2022-10-13T05:23:47.123Z,71.75
2022-10-13T05:26:49.924Z,71.78
2022-10-13T05:29:52.782Z,71.90
2022-10-13T05:32:55.713Z,71.97
2022-10-13T05:36:15.078Z,72.06
2022-10-13T05:39:18.004Z,72.30
2022-10-13T05:42:21.191Z,72.49
2022-10-13T05:45:24.485Z,72.59
2022-10-13T05:48:27.979Z,72.72
2022-10-13T05:51:37.196Z,72.87
2022-10-13T05:54:46.200Z,73.03
2022-10-13T05:57:52.268Z,73.20
2022-10-13T06:00:55.798Z,73.31
2022-10-13T06:04:03.996Z,73.48
2022-10-13T06:07:08.407Z,73.60
2022-10-13T06:10:11.931Z,73.73
2022-10-13T06:13:14.831Z,73.86
2022-10-13T06:16:17.908Z,74.02
2022-10-13T06:19:21.835Z,74.24
2022-10-13T06:22:24.709Z,74.48
2022-10-13T06:25:27.557Z,74.72
2022-10-13T06:28:30.400Z,74.97
2022-10-13T06:31:33.269Z,75.19
2022-10-13T06:34:36.055Z,75.43
2022-10-13T06:37:39.198Z,75.56
2022-10-13T06:40:46.172Z,75.76
2022-10-13T06:43:49.626Z,75.96
2022-10-13T06:46:53.054Z,76.13
2022-10-13T06:49:56.379Z,76.31
2022-10-13T06:52:59.439Z,76.51
2022-10-13T06:56:04.570Z,76.64
2022-10-13T06:59:07.446Z,76.93
2022-10-13T07:02:11.422Z,77.05
2022-10-13T07:05:14.370Z,77.03
2022-10-13T07:08:17.888Z,77.16
2022-10-13T07:11:20.890Z,77.13
2022-10-13T07:14:27.532Z,77.26
2022-10-13T07:17:30.314Z,77.33
2022-10-13T07:20:33.758Z,77.44
2022-10-13T07:23:36.560Z,77.47
2022-10-13T07:26:39.330Z,77.64
2022-10-13T07:29:42.240Z,77.63
2022-10-13T07:32:45.131Z,77.55
2022-10-13T07:35:47.925Z,77.54
2022-10-13T07:38:50.833Z,77.39
2022-10-13T07:41:53.741Z,77.30
2022-10-13T07:44:56.621Z,77.40
2022-10-13T07:48:01.851Z,77.43
2022-10-13T07:51:07.542Z,77.44
2022-10-13T07:54:11.030Z,77.42
2022-10-13T07:57:14.101Z,77.48
2022-10-13T08:00:17.527Z,77.46
2022-10-13T08:03:20.377Z,77.41
2022-10-13T08:06:23.305Z,77.38
2022-10-13T08:09:29.991Z,77.32
2022-10-13T08:12:35.475Z,77.52
2022-10-13T08:15:42.868Z,77.49
2022-10-13T08:18:46.419Z,77.68
2022-10-13T08:21:58.317Z,77.76
2022-10-13T08:25:02.507Z,77.95
2022-10-13T08:28:22.982Z,77.93
2022-10-13T08:31:29.064Z,77.76
2022-10-13T08:34:34.031Z,77.70
2022-10-13T08:37:36.982Z,77.79
2022-10-13T08:40:39.939Z,77.77
2022-10-13T08:44:24.759Z,77.91
2022-10-13T08:47:48.306Z,77.78
2022-10-13T08:50:54.971Z,77.79
2022-10-13T08:53:59.220Z,77.56
2022-10-13T08:57:02.072Z,77.50
2022-10-13T09:00:07.257Z,77.38
2022-10-13T09:03:29.043Z,77.34
2022-10-13T09:06:36.827Z,77.18
2022-10-13T09:09:40.099Z,76.90
2022-10-13T09:12:42.987Z,76.78
2022-10-13T09:15:50.318Z,77.05
2022-10-13T09:18:53.116Z,77.01
2022-10-13T09:22:13.127Z,76.91
2022-10-13T09:25:20.056Z,76.76
2022-10-13T09:28:27.669Z,76.71
2022-10-13T09:31:32.312Z,76.60
2022-10-13T09:34:35.116Z,76.53
2022-10-13T09:37:41.627Z,76.24
2022-10-13T09:40:58.036Z,76.12
2022-10-13T09:44:11.745Z,76.15
2022-10-13T09:47:21.674Z,76.00
2022-10-13T09:50:27.813Z,75.98
2022-10-13T09:53:37.786Z,76.08
2022-10-13T09:56:49.347Z,76.01
2022-10-13T09:59:58.934Z,75.60
2022-10-13T10:03:10.712Z,75.39
2022-10-13T10:06:15.891Z,75.25
2022-10-13T10:09:41.590Z,74.68
2022-10-13T10:12:45.309Z,74.50
2022-10-13T10:16:20.714Z,74.25
2022-10-13T10:19:55.387Z,74.05
2022-10-13T10:23:11.234Z,74.15
2022-10-13T10:26:20.750Z,73.92
2022-10-13T10:29:39.054Z,73.66
2022-10-13T10:33:07.901Z,74.19
2022-10-13T10:36:19.913Z,74.14
2022-10-13T10:39:41.378Z,73.53
2022-10-13T10:42:58.994Z,72.97
2022-10-13T10:46:01.856Z,72.31
2022-10-13T10:49:35.173Z,72.14
2022-10-13T10:53:00.891Z,71.89
2022-10-13T10:56:07.789Z,71.58
2022-10-13T10:59:37.270Z,71.36
2022-10-13T11:02:55.308Z,70.79
2022-10-13T11:06:20.863Z,70.45
2022-10-13T11:09:42.745Z,70.44
2022-10-13T11:13:26.927Z,70.24
2022-10-13T11:16:40.103Z,70.28
2022-10-13T11:19:49.682Z,69.90
2022-10-13T11:22:58.522Z,69.36
2022-10-13T11:26:20.709Z,69.23
2022-10-13T11:29:51.523Z,69.43
2022-10-13T11:32:57.129Z,69.76
2022-10-13T11:36:27.728Z,69.75
2022-10-13T11:39:59.576Z,69.22
2022-10-13T11:43:37.348Z,69.21
2022-10-13T11:46:52.423Z,69.40
2022-10-13T11:50:04.285Z,69.00
2022-10-13T11:53:11.956Z,69.01
2022-10-13T11:56:31.871Z,68.89
2022-10-13T11:59:37.674Z,68.94
2022-10-13T12:02:49.111Z,69.22
2022-10-13T12:05:53.580Z,68.89
2022-10-13T12:08:56.434Z,68.83
2022-10-13T12:12:13.213Z,68.47
2022-10-13T12:15:31.196Z,68.71
2022-10-13T12:18:38.374Z,68.25
2022-10-13T12:21:56.329Z,68.53
2022-10-13T12:25:05.356Z,68.10
2022-10-13T12:28:19.250Z,67.84
2022-10-13T12:31:27.773Z,67.77
2022-10-13T12:34:34.526Z,68.11
2022-10-13T12:37:37.452Z,67.68
2022-10-13T12:40:40.599Z,67.59
2022-10-13T12:43:44.691Z,67.72
2022-10-13T12:46:53.476Z,68.13
2022-10-13T12:50:23.676Z,68.16
2022-10-13T12:53:28.829Z,67.77
2022-10-13T12:56:32.505Z,67.64
2022-10-13T12:59:43.049Z,67.66
2022-10-13T13:03:04.030Z,67.77
2022-10-13T13:06:13.435Z,67.83
2022-10-13T13:09:22.228Z,67.90
2022-10-13T13:12:28.028Z,68.00
2022-10-13T13:15:36.379Z,68.09
2022-10-13T13:18:41.794Z,68.31
2022-10-13T13:21:44.722Z,68.68
2022-10-13T13:24:49.444Z,69.07
2022-10-13T13:27:53.088Z,68.84
2022-10-13T13:30:55.856Z,69.05
2022-10-13T13:33:58.581Z,69.20
2022-10-13T13:37:02.638Z,69.34
2022-10-13T13:40:07.392Z,69.42
2022-10-13T13:43:10.125Z,70.00
2022-10-13T13:46:17.232Z,70.29
2022-10-13T13:49:19.987Z,70.23
2022-10-13T13:52:25.340Z,70.20
2022-10-13T13:55:29.665Z,70.23
2022-10-13T13:58:32.429Z,70.47
2022-10-13T14:01:35.794Z,70.59
2022-10-13T14:04:38.562Z,70.62
2022-10-13T14:07:41.440Z,70.95
2022-10-13T14:10:44.297Z,71.18
2022-10-13T14:13:48.085Z,71.24
2022-10-13T14:16:52.719Z,71.34
2022-10-13T14:19:55.608Z,71.50
2022-10-13T14:22:58.370Z,71.69
2022-10-13T14:26:05.914Z,72.10
2022-10-13T14:29:08.731Z,72.42
2022-10-13T14:32:12.176Z,72.19
2022-10-13T14:35:15.025Z,72.30
2022-10-13T14:38:18.250Z,72.33
2022-10-13T14:41:24.419Z,72.32
2022-10-13T14:44:27.217Z,72.69
2022-10-13T14:47:29.949Z,73.04
2022-10-13T14:50:32.765Z,73.15
2022-10-13T14:53:41.429Z,73.16
2022-10-13T14:56:44.915Z,73.36
2022-10-13T14:59:47.753Z,73.59
2022-10-13T15:02:50.528Z,73.89
2022-10-13T15:05:54.187Z,74.22
2022-10-13T15:08:59.461Z,74.55
2022-10-13T15:12:02.764Z,74.76
2022-10-13T15:15:05.991Z,74.94
2022-10-13T15:18:08.727Z,75.14
2022-10-13T15:21:12.148Z,75.29
2022-10-13T15:24:14.916Z,75.42
2022-10-13T15:27:18.281Z,75.56
2022-10-13T15:30:21.049Z,75.74
2022-10-13T15:33:23.900Z,75.92
2022-10-13T15:36:26.724Z,76.09
2022-10-13T15:39:29.589Z,76.29
2022-10-13T15:42:32.692Z,76.57
2022-10-13T15:45:36.038Z,76.77
2022-10-13T15:48:39.312Z,76.92
2022-10-13T15:51:42.173Z,77.09
2022-10-13T15:54:45.072Z,77.28
2022-10-13T15:57:47.946Z,77.44
2022-10-13T16:00:50.736Z,77.56
2022-10-13T16:03:55.245Z,77.59
2022-10-13T16:06:57.993Z,77.67
2022-10-13T16:10:00.990Z,77.81
2022-10-13T16:13:03.917Z,77.81
2022-10-13T16:16:07.604Z,77.86
2022-10-13T16:19:10.482Z,77.95
2022-10-13T16:22:13.567Z,77.98
2022-10-13T16:25:16.795Z,78.03
2022-10-13T16:28:19.718Z,78.13
2022-10-13T16:31:22.769Z,78.28
2022-10-13T16:34:26.108Z,78.45
2022-10-13T16:37:28.926Z,78.60
2022-10-13T16:40:32.477Z,78.66
2022-10-13T16:43:35.760Z,78.81
2022-10-13T16:46:38.814Z,78.83
2022-10-13T16:49:41.992Z,78.89
2022-10-13T16:52:47.256Z,79.02
2022-10-13T16:55:50.262Z,79.11
2022-10-13T16:58:55.679Z,79.22
2022-10-13T17:01:59.443Z,79.36
2022-10-13T17:05:02.382Z,79.49
2022-10-13T17:08:06.464Z,79.56
2022-10-13T17:11:15.706Z,79.70
2022-10-13T17:14:18.648Z,79.87
2022-10-13T17:17:21.732Z,80.01
2022-10-13T17:20:24.880Z,80.13
2022-10-13T17:23:29.262Z,80.27
2022-10-13T17:26:32.489Z,80.39
2022-10-13T17:29:35.276Z,80.48
2022-10-13T17:32:38.913Z,80.56
2022-10-13T17:35:41.757Z,80.67
2022-10-13T17:38:45.255Z,80.78
2022-10-13T17:41:48.133Z,80.88
2022-10-13T17:44:51.059Z,81.01
2022-10-13T17:47:53.943Z,81.18
2022-10-13T17:51:02.732Z,81.34
2022-10-13T17:54:08.233Z,81.47
2022-10-13T17:57:14.510Z,81.55
2022-10-13T18:00:18.095Z,81.59
2022-10-13T18:03:21.552Z,81.63
2022-10-13T18:06:24.485Z,81.66
2022-10-13T18:09:27.326Z,81.71
2022-10-13T18:12:30.117Z,81.75
2022-10-13T18:15:36.876Z,81.76
2022-10-13T18:18:39.876Z,81.80
2022-10-13T18:21:43.046Z,81.80
2022-10-13T18:24:46.347Z,81.78
2022-10-13T18:27:49.205Z,81.80
2022-10-13T18:30:52.051Z,81.80
2022-10-13T18:34:00.678Z,81.77
2022-10-13T18:37:05.656Z,81.73
2022-10-13T18:40:09.003Z,81.67
2022-10-13T18:43:11.848Z,81.62
2022-10-13T18:46:14.836Z,81.56
2022-10-13T18:49:20.608Z,81.50
2022-10-13T18:52:23.507Z,81.50
2022-10-13T18:55:26.404Z,81.44
2022-10-13T18:58:30.549Z,81.37
2022-10-13T19:01:35.139Z,81.36
2022-10-13T19:04:38.312Z,81.30
2022-10-13T19:07:41.345Z,81.20
2022-10-13T19:10:44.180Z,81.06
2022-10-13T19:13:48.369Z,80.94
2022-10-13T19:16:51.312Z,80.86
2022-10-13T19:19:56.352Z,80.78
2022-10-13T19:22:59.222Z,80.65
2022-10-13T19:26:15.254Z,80.52
2022-10-13T19:29:18.417Z,80.39
2022-10-13T19:32:21.357Z,80.22
2022-10-13T19:35:24.300Z,80.07
2022-10-13T19:38:27.361Z,79.94
2022-10-13T19:41:32.349Z,79.85
2022-10-13T19:44:35.376Z,79.77
2022-10-13T19:47:38.373Z,79.70
2022-10-13T19:50:44.138Z,79.50
2022-10-13T19:53:49.484Z,79.40
2022-10-13T19:56:52.534Z,79.46
2022-10-13T19:59:55.444Z,79.53
2022-10-13T20:02:58.362Z,79.45
2022-10-13T20:06:05.845Z,79.39
2022-10-13T20:09:14.705Z,79.41
2022-10-13T20:12:17.598Z,79.40
2022-10-13T20:15:20.623Z,79.34
2022-10-13T20:18:24.040Z,79.32
2022-10-13T20:21:27.749Z,79.26
2022-10-13T20:24:30.659Z,79.18
2022-10-13T20:27:34.037Z,79.14
2022-10-13T20:30:39.468Z,79.07
2022-10-13T20:33:43.401Z,79.04
2022-10-13T20:36:46.314Z,79.05
2022-10-13T20:39:49.199Z,79.01
2022-10-13T20:42:52.716Z,79.05
2022-10-13T20:46:01.254Z,79.09
2022-10-13T20:49:13.073Z,79.13
2022-10-13T20:52:16.571Z,79.08
2022-10-13T20:55:22.366Z,79.13
2022-10-13T20:58:29.879Z,79.12
2022-10-13T21:01:34.681Z,79.05
2022-10-13T21:04:37.620Z,79.06
2022-10-13T21:07:40.932Z,79.05
2022-10-13T21:10:45.265Z,79.00
2022-10-13T21:13:49.653Z,78.87
2022-10-13T21:16:54.226Z,78.88
2022-10-13T21:19:58.309Z,78.87
2022-10-13T21:23:02.218Z,78.83
2022-10-13T21:26:06.877Z,78.95
2022-10-13T21:29:10.072Z,79.04
2022-10-13T21:32:13.034Z,79.10
2022-10-13T21:35:16.597Z,79.17
2022-10-13T21:38:19.520Z,79.21
2022-10-13T21:41:23.562Z,79.13
2022-10-13T21:44:27.932Z,78.98
2022-10-13T21:47:32.500Z,78.90
2022-10-13T21:50:35.612Z,78.83
2022-10-13T21:53:38.445Z,78.66
2022-10-13T21:56:42.428Z,78.63
2022-10-13T21:59:45.668Z,78.62
2022-10-13T22:02:48.533Z,78.60
2022-10-13T22:05:56.408Z,78.70
2022-10-13T22:09:02.460Z,78.81
2022-10-13T22:12:05.690Z,78.77
2022-10-13T22:15:08.902Z,78.63
2022-10-13T22:18:11.768Z,78.64
2022-10-13T22:21:20.750Z,78.78
2022-10-13T22:24:23.616Z,78.78
2022-10-13T22:27:26.501Z,78.84
2022-10-13T22:30:29.389Z,78.86
2022-10-13T22:33:33.728Z,78.92
2022-10-13T22:36:39.920Z,78.99
2022-10-13T22:39:45.314Z,79.10
2022-10-13T22:42:49.440Z,79.08
2022-10-13T22:45:52.428Z,79.09
2022-10-13T22:48:56.369Z,79.04
2022-10-13T22:51:59.588Z,79.06
2022-10-13T22:55:02.446Z,79.11
2022-10-13T22:58:08.380Z,79.18
2022-10-13T23:01:15.170Z,79.28
2022-10-13T23:04:17.994Z,79.36
2022-10-13T23:07:21.425Z,79.44
2022-10-13T23:10:24.598Z,79.48
2022-10-13T23:13:27.462Z,79.48
2022-10-13T23:16:33.092Z,79.52
2022-10-13T23:19:36.528Z,79.56
2022-10-13T23:22:39.613Z,79.52
2022-10-13T23:25:42.491Z,79.55
2022-10-13T23:28:45.405Z,79.60
2022-10-13T23:31:48.349Z,79.61
2022-10-13T23:34:51.245Z,79.54
2022-10-13T23:37:55.851Z,79.50
2022-10-13T23:41:08.200Z,79.52
2022-10-13T23:44:12.370Z,79.50
2022-10-13T23:47:15.266Z,79.51
2022-10-13T23:50:18.108Z,79.54
2022-10-13T23:53:21.625Z,79.60
2022-10-13T23:56:25.348Z,79.63
2022-10-13T23:59:28.230Z,79.71
